sensor_id;sensor_type;location;lat;lon;timestamp;P1;durP1;ratioP1;P2;durP2;ratioP2
5163;SDS011;2601;50.224;10.126;2022-09-09T00:00:41;4.50;;;3.30;;
5163;SDS011;2601;50.224;10.126;2022-09-09T00:03:16;4.40;;;3.07;;
5163;SDS011;2601;50.224;10.126;2022-09-09T00:09:10;3.23;;;2.93;;
5163;SDS011;2601;50.224;10.126;2022-09-09T00:17:47;4.60;;;2.80;;
5163;SDS011;2601;50.224;10.126;2022-09-09T00:20:34;6.10;;;3.37;;
5163;SDS011;2601;50.224;10.126;2022-09-09T00:23:24;5.80;;;2.87;;
5163;SDS011;2601;50.224;10.126;2022-09-09T00:26:14;3.03;;;2.83;;
5163;SDS011;2601;50.224;10.126;2022-09-09T00:31:27;4.37;;;3.00;;
5163;SDS011;2601;50.224;10.126;2022-09-09T00:33:54;8.83;;;2.90;;
5163;SDS011;2601;50.224;10.126;2022-09-09T00:36:26;3.27;;;2.90;;
5163;SDS011;2601;50.224;10.126;2022-09-09T00:38:57;7.60;;;2.97;;
5163;SDS011;2601;50.224;10.126;2022-09-09T00:41:31;5.70;;;2.80;;
5163;SDS011;2601;50.224;10.126;2022-09-09T00:47:12;7.40;;;2.80;;
5163;SDS011;2601;50.224;10.126;2022-09-09T00:57:35;4.33;;;3.27;;
5163;SDS011;2601;50.224;10.126;2022-09-09T01:05:51;6.90;;;2.83;;
5163;SDS011;2601;50.224;10.126;2022-09-09T01:11:10;3.90;;;3.00;;
5163;SDS011;2601;50.224;10.126;2022-09-09T01:13:45;4.60;;;3.47;;
5163;SDS011;2601;50.224;10.126;2022-09-09T01:16:14;4.43;;;3.73;;
5163;SDS011;2601;50.224;10.126;2022-09-09T01:18:45;4.27;;;3.50;;
5163;SDS011;2601;50.224;10.126;2022-09-09T01:29:09;6.63;;;3.77;;
5163;SDS011;2601;50.224;10.126;2022-09-09T01:31:41;4.83;;;2.90;;
5163;SDS011;2601;50.224;10.126;2022-09-09T01:34:36;4.47;;;2.90;;
5163;SDS011;2601;50.224;10.126;2022-09-09T01:37:10;4.37;;;3.13;;
5163;SDS011;2601;50.224;10.126;2022-09-09T01:39:38;5.73;;;3.23;;
5163;SDS011;2601;50.224;10.126;2022-09-09T01:42:08;3.53;;;3.03;;
5163;SDS011;2601;50.224;10.126;2022-09-09T01:44:37;5.00;;;2.37;;
5163;SDS011;2601;50.224;10.126;2022-09-09T01:47:03;4.30;;;3.07;;
5163;SDS011;2601;50.224;10.126;2022-09-09T01:49:29;14.53;;;3.77;;
5163;SDS011;2601;50.224;10.126;2022-09-09T01:51:56;9.30;;;3.10;;
5163;SDS011;2601;50.224;10.126;2022-09-09T01:54:23;3.30;;;3.00;;
5163;SDS011;2601;50.224;10.126;2022-09-09T02:02:30;3.40;;;3.10;;
5163;SDS011;2601;50.224;10.126;2022-09-09T02:05:04;9.90;;;2.67;;
5163;SDS011;2601;50.224;10.126;2022-09-09T02:10:09;3.13;;;2.60;;
5163;SDS011;2601;50.224;10.126;2022-09-09T02:12:47;3.03;;;2.70;;
5163;SDS011;2601;50.224;10.126;2022-09-09T02:17:51;6.23;;;2.80;;
5163;SDS011;2601;50.224;10.126;2022-09-09T02:20:18;4.00;;;2.70;;
5163;SDS011;2601;50.224;10.126;2022-09-09T02:22:45;2.90;;;2.70;;
5163;SDS011;2601;50.224;10.126;2022-09-09T02:25:15;8.27;;;2.23;;
5163;SDS011;2601;50.224;10.126;2022-09-09T02:27:44;3.40;;;2.50;;
5163;SDS011;2601;50.224;10.126;2022-09-09T02:30:12;5.87;;;3.13;;
5163;SDS011;2601;50.224;10.126;2022-09-09T02:32:37;4.17;;;2.73;;
5163;SDS011;2601;50.224;10.126;2022-09-09T02:35:11;3.13;;;2.80;;
5163;SDS011;2601;50.224;10.126;2022-09-09T02:37:40;9.27;;;2.77;;
5163;SDS011;2601;50.224;10.126;2022-09-09T02:40:08;4.60;;;3.00;;
5163;SDS011;2601;50.224;10.126;2022-09-09T02:42:43;3.43;;;3.10;;
5163;SDS011;2601;50.224;10.126;2022-09-09T02:45:10;5.13;;;2.90;;
5163;SDS011;2601;50.224;10.126;2022-09-09T02:50:34;5.23;;;2.77;;
5163;SDS011;2601;50.224;10.126;2022-09-09T02:56:05;8.43;;;3.00;;
5163;SDS011;2601;50.224;10.126;2022-09-09T02:58:38;6.37;;;4.50;;
5163;SDS011;2601;50.224;10.126;2022-09-09T03:01:04;5.20;;;4.00;;
5163;SDS011;2601;50.224;10.126;2022-09-09T03:03:30;9.83;;;4.20;;
5163;SDS011;2601;50.224;10.126;2022-09-09T03:05:56;5.23;;;3.60;;
5163;SDS011;2601;50.224;10.126;2022-09-09T03:08:22;4.20;;;3.90;;
5163;SDS011;2601;50.224;10.126;2022-09-09T03:10:48;3.53;;;3.33;;
5163;SDS011;2601;50.224;10.126;2022-09-09T03:13:14;6.03;;;3.00;;
5163;SDS011;2601;50.224;10.126;2022-09-09T03:15:40;6.83;;;4.30;;
5163;SDS011;2601;50.224;10.126;2022-09-09T03:18:06;6.30;;;4.53;;
5163;SDS011;2601;50.224;10.126;2022-09-09T03:20:32;10.20;;;3.40;;
5163;SDS011;2601;50.224;10.126;2022-09-09T03:22:59;3.70;;;3.40;;
5163;SDS011;2601;50.224;10.126;2022-09-09T03:25:25;7.20;;;3.37;;
5163;SDS011;2601;50.224;10.126;2022-09-09T03:27:51;4.43;;;4.00;;
5163;SDS011;2601;50.224;10.126;2022-09-09T03:30:20;9.63;;;3.07;;
5163;SDS011;2601;50.224;10.126;2022-09-09T03:32:47;3.97;;;3.27;;
5163;SDS011;2601;50.224;10.126;2022-09-09T03:35:13;4.07;;;3.67;;
5163;SDS011;2601;50.224;10.126;2022-09-09T03:37:40;10.83;;;3.77;;
5163;SDS011;2601;50.224;10.126;2022-09-09T03:40:06;9.00;;;4.43;;
5163;SDS011;2601;50.224;10.126;2022-09-09T03:42:35;6.60;;;3.90;;
5163;SDS011;2601;50.224;10.126;2022-09-09T03:45:02;11.97;;;4.93;;
5163;SDS011;2601;50.224;10.126;2022-09-09T03:47:29;6.83;;;3.90;;
5163;SDS011;2601;50.224;10.126;2022-09-09T03:49:55;4.37;;;3.20;;
5163;SDS011;2601;50.224;10.126;2022-09-09T03:52:21;8.33;;;3.77;;
5163;SDS011;2601;50.224;10.126;2022-09-09T03:54:50;3.97;;;3.00;;
5163;SDS011;2601;50.224;10.126;2022-09-09T03:57:16;6.03;;;3.73;;
5163;SDS011;2601;50.224;10.126;2022-09-09T03:59:42;4.87;;;3.97;;
5163;SDS011;2601;50.224;10.126;2022-09-09T04:02:08;12.47;;;4.17;;
5163;SDS011;2601;50.224;10.126;2022-09-09T04:04:34;7.27;;;4.07;;
5163;SDS011;2601;50.224;10.126;2022-09-09T04:07:00;8.23;;;4.00;;
5163;SDS011;2601;50.224;10.126;2022-09-09T04:09:26;5.43;;;3.60;;
5163;SDS011;2601;50.224;10.126;2022-09-09T04:11:51;8.77;;;3.90;;
5163;SDS011;2601;50.224;10.126;2022-09-09T04:14:18;7.50;;;4.60;;
5163;SDS011;2601;50.224;10.126;2022-09-09T04:16:44;6.73;;;4.53;;
5163;SDS011;2601;50.224;10.126;2022-09-09T04:19:11;5.10;;;3.93;;
5163;SDS011;2601;50.224;10.126;2022-09-09T04:21:38;4.90;;;4.07;;
5163;SDS011;2601;50.224;10.126;2022-09-09T04:24:05;7.70;;;4.50;;
5163;SDS011;2601;50.224;10.126;2022-09-09T04:26:32;7.50;;;5.40;;
5163;SDS011;2601;50.224;10.126;2022-09-09T04:28:58;8.00;;;5.07;;
5163;SDS011;2601;50.224;10.126;2022-09-09T04:31:24;22.43;;;5.10;;
5163;SDS011;2601;50.224;10.126;2022-09-09T04:33:50;6.20;;;4.97;;
5163;SDS011;2601;50.224;10.126;2022-09-09T04:36:17;7.30;;;4.30;;
5163;SDS011;2601;50.224;10.126;2022-09-09T04:38:44;7.70;;;4.17;;
5163;SDS011;2601;50.224;10.126;2022-09-09T04:41:10;5.50;;;4.30;;
5163;SDS011;2601;50.224;10.126;2022-09-09T04:43:39;7.10;;;4.10;;
5163;SDS011;2601;50.224;10.126;2022-09-09T04:46:05;4.70;;;4.17;;
5163;SDS011;2601;50.224;10.126;2022-09-09T04:48:31;5.00;;;3.70;;
5163;SDS011;2601;50.224;10.126;2022-09-09T04:51:04;8.47;;;4.60;;
5163;SDS011;2601;50.224;10.126;2022-09-09T04:53:31;16.80;;;4.17;;
5163;SDS011;2601;50.224;10.126;2022-09-09T04:58:32;14.97;;;3.73;;
5163;SDS011;2601;50.224;10.126;2022-09-09T05:01:08;5.40;;;4.27;;
5163;SDS011;2601;50.224;10.126;2022-09-09T05:03:36;4.30;;;3.90;;
5163;SDS011;2601;50.224;10.126;2022-09-09T05:06:09;7.07;;;4.20;;
5163;SDS011;2601;50.224;10.126;2022-09-09T05:08:37;7.73;;;4.80;;
5163;SDS011;2601;50.224;10.126;2022-09-09T05:11:20;8.60;;;4.30;;
5163;SDS011;2601;50.224;10.126;2022-09-09T05:13:51;6.77;;;3.67;;
5163;SDS011;2601;50.224;10.126;2022-09-09T05:16:17;5.80;;;3.93;;
5163;SDS011;2601;50.224;10.126;2022-09-09T05:18:44;5.33;;;3.40;;
5163;SDS011;2601;50.224;10.126;2022-09-09T05:21:11;4.87;;;4.47;;
5163;SDS011;2601;50.224;10.126;2022-09-09T05:23:39;6.17;;;4.47;;
5163;SDS011;2601;50.224;10.126;2022-09-09T05:26:05;8.73;;;3.83;;
5163;SDS011;2601;50.224;10.126;2022-09-09T05:28:33;6.27;;;4.70;;
5163;SDS011;2601;50.224;10.126;2022-09-09T05:31:05;4.13;;;3.60;;
5163;SDS011;2601;50.224;10.126;2022-09-09T05:33:37;4.70;;;4.20;;
5163;SDS011;2601;50.224;10.126;2022-09-09T05:36:16;4.73;;;3.73;;
5163;SDS011;2601;50.224;10.126;2022-09-09T05:38:43;6.20;;;3.40;;
5163;SDS011;2601;50.224;10.126;2022-09-09T05:41:09;3.90;;;3.40;;
5163;SDS011;2601;50.224;10.126;2022-09-09T05:43:40;4.70;;;3.93;;
5163;SDS011;2601;50.224;10.126;2022-09-09T05:46:16;4.03;;;3.63;;
5163;SDS011;2601;50.224;10.126;2022-09-09T05:48:44;6.17;;;3.87;;
5163;SDS011;2601;50.224;10.126;2022-09-09T05:51:17;9.80;;;4.60;;
5163;SDS011;2601;50.224;10.126;2022-09-09T05:53:47;6.07;;;4.27;;
5163;SDS011;2601;50.224;10.126;2022-09-09T05:56:17;7.30;;;4.17;;
5163;SDS011;2601;50.224;10.126;2022-09-09T05:58:47;5.23;;;3.97;;
5163;SDS011;2601;50.224;10.126;2022-09-09T06:01:21;8.30;;;4.00;;
5163;SDS011;2601;50.224;10.126;2022-09-09T06:03:49;4.30;;;3.73;;
5163;SDS011;2601;50.224;10.126;2022-09-09T06:06:17;11.37;;;4.60;;
5163;SDS011;2601;50.224;10.126;2022-09-09T06:08:46;5.83;;;4.50;;
5163;SDS011;2601;50.224;10.126;2022-09-09T06:11:22;9.10;;;4.43;;
5163;SDS011;2601;50.224;10.126;2022-09-09T06:13:49;10.70;;;5.20;;
5163;SDS011;2601;50.224;10.126;2022-09-09T06:16:20;7.20;;;4.40;;
5163;SDS011;2601;50.224;10.126;2022-09-09T06:18:51;10.83;;;4.20;;
5163;SDS011;2601;50.224;10.126;2022-09-09T06:21:19;9.50;;;4.50;;
5163;SDS011;2601;50.224;10.126;2022-09-09T06:23:47;7.30;;;4.10;;
5163;SDS011;2601;50.224;10.126;2022-09-09T06:26:15;10.00;;;4.20;;
5163;SDS011;2601;50.224;10.126;2022-09-09T06:28:43;8.40;;;3.83;;
5163;SDS011;2601;50.224;10.126;2022-09-09T06:31:11;6.80;;;4.70;;
5163;SDS011;2601;50.224;10.126;2022-09-09T06:33:38;7.13;;;4.17;;
5163;SDS011;2601;50.224;10.126;2022-09-09T06:36:07;6.03;;;4.10;;
5163;SDS011;2601;50.224;10.126;2022-09-09T06:38:37;9.60;;;4.17;;
5163;SDS011;2601;50.224;10.126;2022-09-09T06:41:03;3.57;;;3.20;;
5163;SDS011;2601;50.224;10.126;2022-09-09T06:43:31;8.80;;;3.63;;
5163;SDS011;2601;50.224;10.126;2022-09-09T06:45:57;4.73;;;3.87;;
5163;SDS011;2601;50.224;10.126;2022-09-09T06:48:27;3.80;;;3.50;;
5163;SDS011;2601;50.224;10.126;2022-09-09T06:51:04;4.53;;;3.93;;
5163;SDS011;2601;50.224;10.126;2022-09-09T06:53:31;5.40;;;3.20;;
5163;SDS011;2601;50.224;10.126;2022-09-09T06:55:59;4.23;;;3.83;;
5163;SDS011;2601;50.224;10.126;2022-09-09T06:58:27;7.03;;;4.60;;
5163;SDS011;2601;50.224;10.126;2022-09-09T07:01:01;7.50;;;4.20;;
5163;SDS011;2601;50.224;10.126;2022-09-09T07:03:31;5.60;;;3.97;;
5163;SDS011;2601;50.224;10.126;2022-09-09T07:05:57;7.87;;;3.70;;
5163;SDS011;2601;50.224;10.126;2022-09-09T07:08:23;5.53;;;3.60;;
5163;SDS011;2601;50.224;10.126;2022-09-09T07:10:50;13.40;;;3.20;;
5163;SDS011;2601;50.224;10.126;2022-09-09T07:13:19;3.27;;;2.70;;
5163;SDS011;2601;50.224;10.126;2022-09-09T07:15:50;10.23;;;2.73;;
5163;SDS011;2601;50.224;10.126;2022-09-09T07:18:17;4.90;;;2.00;;
5163;SDS011;2601;50.224;10.126;2022-09-09T07:20:52;7.47;;;2.10;;
5163;SDS011;2601;50.224;10.126;2022-09-09T07:23:20;4.43;;;1.93;;
5163;SDS011;2601;50.224;10.126;2022-09-09T07:25:45;7.20;;;2.00;;
5163;SDS011;2601;50.224;10.126;2022-09-09T07:28:12;6.00;;;3.30;;
5163;SDS011;2601;50.224;10.126;2022-09-09T07:30:39;6.80;;;2.20;;
5163;SDS011;2601;50.224;10.126;2022-09-09T07:33:05;5.50;;;1.93;;
5163;SDS011;2601;50.224;10.126;2022-09-09T07:35:32;7.63;;;2.77;;
5163;SDS011;2601;50.224;10.126;2022-09-09T07:38:00;7.10;;;2.00;;
5163;SDS011;2601;50.224;10.126;2022-09-09T07:40:26;4.03;;;1.90;;
5163;SDS011;2601;50.224;10.126;2022-09-09T07:42:52;4.30;;;1.97;;
5163;SDS011;2601;50.224;10.126;2022-09-09T07:45:18;2.57;;;1.90;;
5163;SDS011;2601;50.224;10.126;2022-09-09T07:47:44;5.63;;;1.80;;
5163;SDS011;2601;50.224;10.126;2022-09-09T07:50:10;5.97;;;2.70;;
5163;SDS011;2601;50.224;10.126;2022-09-09T07:52:36;5.10;;;2.60;;
5163;SDS011;2601;50.224;10.126;2022-09-09T07:55:02;4.43;;;1.83;;
5163;SDS011;2601;50.224;10.126;2022-09-09T07:57:29;8.40;;;1.60;;
5163;SDS011;2601;50.224;10.126;2022-09-09T07:59:56;5.30;;;1.87;;
5163;SDS011;2601;50.224;10.126;2022-09-09T08:02:23;7.73;;;1.80;;
5163;SDS011;2601;50.224;10.126;2022-09-09T08:04:50;11.23;;;2.77;;
5163;SDS011;2601;50.224;10.126;2022-09-09T08:07:16;3.63;;;1.73;;
5163;SDS011;2601;50.224;10.126;2022-09-09T08:09:42;13.00;;;3.70;;
5163;SDS011;2601;50.224;10.126;2022-09-09T08:12:08;13.83;;;3.27;;
5163;SDS011;2601;50.224;10.126;2022-09-09T08:14:36;5.10;;;1.90;;
5163;SDS011;2601;50.224;10.126;2022-09-09T08:17:01;32.57;;;3.63;;
5163;SDS011;2601;50.224;10.126;2022-09-09T08:19:27;6.00;;;1.60;;
5163;SDS011;2601;50.224;10.126;2022-09-09T08:21:59;20.60;;;2.20;;
5163;SDS011;2601;50.224;10.126;2022-09-09T08:24:27;4.07;;;1.37;;
5163;SDS011;2601;50.224;10.126;2022-09-09T08:26:52;6.20;;;1.80;;
5163;SDS011;2601;50.224;10.126;2022-09-09T08:29:19;3.07;;;1.57;;
5163;SDS011;2601;50.224;10.126;2022-09-09T08:34:12;3.83;;;1.80;;
5163;SDS011;2601;50.224;10.126;2022-09-09T08:36:42;3.97;;;1.93;;
5163;SDS011;2601;50.224;10.126;2022-09-09T08:39:09;11.70;;;1.80;;
5163;SDS011;2601;50.224;10.126;2022-09-09T08:57:41;9.10;;;2.20;;
5163;SDS011;2601;50.224;10.126;2022-09-09T09:00:09;5.97;;;1.60;;
5163;SDS011;2601;50.224;10.126;2022-09-09T09:05:47;5.63;;;2.13;;
5163;SDS011;2601;50.224;10.126;2022-09-09T09:11:06;8.00;;;2.20;;
5163;SDS011;2601;50.224;10.126;2022-09-09T09:16:12;8.33;;;2.47;;
5163;SDS011;2601;50.224;10.126;2022-09-09T09:19:00;5.00;;;1.80;;
5163;SDS011;2601;50.224;10.126;2022-09-09T09:23:56;7.23;;;2.03;;
5163;SDS011;2601;50.224;10.126;2022-09-09T09:26:24;7.03;;;1.97;;
5163;SDS011;2601;50.224;10.126;2022-09-09T09:28:55;6.13;;;1.97;;
5163;SDS011;2601;50.224;10.126;2022-09-09T09:31:24;8.23;;;1.50;;
5163;SDS011;2601;50.224;10.126;2022-09-09T09:33:55;6.70;;;1.93;;
5163;SDS011;2601;50.224;10.126;2022-09-09T09:36:42;3.37;;;1.33;;
5163;SDS011;2601;50.224;10.126;2022-09-09T09:39:22;3.30;;;1.20;;
5163;SDS011;2601;50.224;10.126;2022-09-09T09:41:52;5.13;;;1.40;;
5163;SDS011;2601;50.224;10.126;2022-09-09T09:44:26;5.47;;;1.83;;
5163;SDS011;2601;50.224;10.126;2022-09-09T09:47:04;2.93;;;1.60;;
5163;SDS011;2601;50.224;10.126;2022-09-09T09:52:21;10.00;;;2.03;;
5163;SDS011;2601;50.224;10.126;2022-09-09T09:54:49;5.30;;;1.80;;
5163;SDS011;2601;50.224;10.126;2022-09-09T09:57:17;8.10;;;1.57;;
5163;SDS011;2601;50.224;10.126;2022-09-09T09:59:48;7.40;;;1.50;;
5163;SDS011;2601;50.224;10.126;2022-09-09T10:02:24;5.60;;;1.47;;
5163;SDS011;2601;50.224;10.126;2022-09-09T10:05:02;3.53;;;1.30;;
5163;SDS011;2601;50.224;10.126;2022-09-09T10:07:37;5.60;;;2.23;;
5163;SDS011;2601;50.224;10.126;2022-09-09T10:10:04;2.23;;;1.30;;
5163;SDS011;2601;50.224;10.126;2022-09-09T10:18:05;6.53;;;1.77;;
5163;SDS011;2601;50.224;10.126;2022-09-09T10:20:43;9.50;;;1.70;;
5163;SDS011;2601;50.224;10.126;2022-09-09T10:23:24;8.10;;;1.70;;
5163;SDS011;2601;50.224;10.126;2022-09-09T10:26:19;2.53;;;1.50;;
5163;SDS011;2601;50.224;10.126;2022-09-09T10:42:38;3.53;;;1.50;;
5163;SDS011;2601;50.224;10.126;2022-09-09T10:47:56;3.60;;;1.77;;
5163;SDS011;2601;50.224;10.126;2022-09-09T10:56:08;4.77;;;1.37;;
5163;SDS011;2601;50.224;10.126;2022-09-09T11:01:34;9.00;;;2.00;;
5163;SDS011;2601;50.224;10.126;2022-09-09T11:04:22;7.30;;;1.97;;
5163;SDS011;2601;50.224;10.126;2022-09-09T11:06:56;10.43;;;2.23;;
5163;SDS011;2601;50.224;10.126;2022-09-09T11:09:27;8.93;;;2.50;;
5163;SDS011;2601;50.224;10.126;2022-09-09T11:11:58;12.87;;;4.20;;
5163;SDS011;2601;50.224;10.126;2022-09-09T11:14:47;4.33;;;1.90;;
5163;SDS011;2601;50.224;10.126;2022-09-09T11:17:26;14.33;;;2.00;;
5163;SDS011;2601;50.224;10.126;2022-09-09T11:19:58;7.70;;;1.93;;
5163;SDS011;2601;50.224;10.126;2022-09-09T11:27:48;4.87;;;2.50;;
5163;SDS011;2601;50.224;10.126;2022-09-09T11:31:00;8.17;;;2.13;;
5163;SDS011;2601;50.224;10.126;2022-09-09T11:44:37;5.67;;;1.40;;
5163;SDS011;2601;50.224;10.126;2022-09-09T11:47:03;4.73;;;1.60;;
5163;SDS011;2601;50.224;10.126;2022-09-09T11:49:41;4.23;;;1.60;;
5163;SDS011;2601;50.224;10.126;2022-09-09T11:52:21;6.00;;;2.00;;
5163;SDS011;2601;50.224;10.126;2022-09-09T11:55:20;7.80;;;1.87;;
5163;SDS011;2601;50.224;10.126;2022-09-09T11:57:58;3.30;;;1.10;;
5163;SDS011;2601;50.224;10.126;2022-09-09T12:03:05;7.30;;;2.13;;
5163;SDS011;2601;50.224;10.126;2022-09-09T12:05:51;8.63;;;1.30;;
5163;SDS011;2601;50.224;10.126;2022-09-09T12:08:20;6.30;;;1.73;;
5163;SDS011;2601;50.224;10.126;2022-09-09T12:10:57;7.70;;;1.70;;
5163;SDS011;2601;50.224;10.126;2022-09-09T12:13:28;3.73;;;1.63;;
5163;SDS011;2601;50.224;10.126;2022-09-09T12:15:56;4.07;;;1.43;;
5163;SDS011;2601;50.224;10.126;2022-09-09T12:18:44;6.37;;;1.87;;
5163;SDS011;2601;50.224;10.126;2022-09-09T12:21:16;3.27;;;1.07;;
5163;SDS011;2601;50.224;10.126;2022-09-09T12:23:55;6.57;;;1.33;;
5163;SDS011;2601;50.224;10.126;2022-09-09T12:26:52;3.43;;;1.43;;
5163;SDS011;2601;50.224;10.126;2022-09-09T12:32:11;4.27;;;1.57;;
5163;SDS011;2601;50.224;10.126;2022-09-09T12:34:43;4.43;;;1.30;;
5163;SDS011;2601;50.224;10.126;2022-09-09T12:39:50;4.93;;;1.40;;
5163;SDS011;2601;50.224;10.126;2022-09-09T12:42:20;3.83;;;1.00;;
5163;SDS011;2601;50.224;10.126;2022-09-09T12:44:51;1.80;;;1.37;;
5163;SDS011;2601;50.224;10.126;2022-09-09T12:47:16;2.20;;;0.87;;
5163;SDS011;2601;50.224;10.126;2022-09-09T12:49:45;4.50;;;1.17;;
5163;SDS011;2601;50.224;10.126;2022-09-09T12:52:23;2.83;;;1.50;;
5163;SDS011;2601;50.224;10.126;2022-09-09T12:54:52;3.27;;;1.30;;
5163;SDS011;2601;50.224;10.126;2022-09-09T12:57:19;4.60;;;1.33;;
5163;SDS011;2601;50.224;10.126;2022-09-09T12:59:48;7.30;;;1.40;;
5163;SDS011;2601;50.224;10.126;2022-09-09T13:04:50;3.20;;;1.10;;
5163;SDS011;2601;50.224;10.126;2022-09-09T13:07:20;2.97;;;0.80;;
5163;SDS011;2601;50.224;10.126;2022-09-09T13:09:47;1.40;;;0.87;;
5163;SDS011;2601;50.224;10.126;2022-09-09T13:12:20;5.20;;;1.07;;
5163;SDS011;2601;50.224;10.126;2022-09-09T13:14:53;3.10;;;1.00;;
5163;SDS011;2601;50.224;10.126;2022-09-09T13:17:25;2.93;;;1.30;;
5163;SDS011;2601;50.224;10.126;2022-09-09T13:19:54;8.33;;;0.90;;
5163;SDS011;2601;50.224;10.126;2022-09-09T13:22:22;1.50;;;0.57;;
5163;SDS011;2601;50.224;10.126;2022-09-09T13:24:58;2.90;;;0.60;;
5163;SDS011;2601;50.224;10.126;2022-09-09T13:28:18;2.17;;;0.80;;
5163;SDS011;2601;50.224;10.126;2022-09-09T13:30:54;2.60;;;1.07;;
5163;SDS011;2601;50.224;10.126;2022-09-09T13:36:09;4.23;;;0.97;;
5163;SDS011;2601;50.224;10.126;2022-09-09T13:38:57;2.27;;;0.67;;
5163;SDS011;2601;50.224;10.126;2022-09-09T13:41:43;4.20;;;1.07;;
5163;SDS011;2601;50.224;10.126;2022-09-09T13:46:58;1.90;;;1.00;;
5163;SDS011;2601;50.224;10.126;2022-09-09T13:49:45;2.10;;;0.97;;
5163;SDS011;2601;50.224;10.126;2022-09-09T13:52:12;3.50;;;1.20;;
5163;SDS011;2601;50.224;10.126;2022-09-09T13:54:40;3.63;;;2.00;;
5163;SDS011;2601;50.224;10.126;2022-09-09T13:57:20;6.17;;;1.00;;
5163;SDS011;2601;50.224;10.126;2022-09-09T13:59:49;2.87;;;1.23;;
5163;SDS011;2601;50.224;10.126;2022-09-09T14:02:15;5.10;;;1.37;;
5163;SDS011;2601;50.224;10.126;2022-09-09T14:04:42;5.00;;;1.20;;
5163;SDS011;2601;50.224;10.126;2022-09-09T14:07:09;2.10;;;0.90;;
5163;SDS011;2601;50.224;10.126;2022-09-09T14:09:38;1.53;;;0.70;;
5163;SDS011;2601;50.224;10.126;2022-09-09T14:12:05;1.50;;;0.80;;
5163;SDS011;2601;50.224;10.126;2022-09-09T14:14:34;2.50;;;1.27;;
5163;SDS011;2601;50.224;10.126;2022-09-09T14:16:59;2.23;;;0.80;;
5163;SDS011;2601;50.224;10.126;2022-09-09T14:19:25;4.67;;;1.20;;
5163;SDS011;2601;50.224;10.126;2022-09-09T14:21:51;4.50;;;1.57;;
5163;SDS011;2601;50.224;10.126;2022-09-09T14:24:17;12.20;;;0.93;;
5163;SDS011;2601;50.224;10.126;2022-09-09T14:26:42;2.40;;;1.17;;
5163;SDS011;2601;50.224;10.126;2022-09-09T14:29:08;1.50;;;1.00;;
5163;SDS011;2601;50.224;10.126;2022-09-09T14:31:34;2.33;;;1.43;;
5163;SDS011;2601;50.224;10.126;2022-09-09T14:33:59;1.40;;;1.03;;
5163;SDS011;2601;50.224;10.126;2022-09-09T14:36:25;3.20;;;1.00;;
5163;SDS011;2601;50.224;10.126;2022-09-09T14:38:51;1.30;;;0.83;;
5163;SDS011;2601;50.224;10.126;2022-09-09T14:41:17;3.30;;;1.30;;
5163;SDS011;2601;50.224;10.126;2022-09-09T14:43:45;2.87;;;0.93;;
5163;SDS011;2601;50.224;10.126;2022-09-09T14:46:12;5.53;;;1.00;;
5163;SDS011;2601;50.224;10.126;2022-09-09T14:48:42;3.10;;;0.87;;
5163;SDS011;2601;50.224;10.126;2022-09-09T14:51:12;3.53;;;1.23;;
5163;SDS011;2601;50.224;10.126;2022-09-09T14:53:43;5.43;;;1.30;;
5163;SDS011;2601;50.224;10.126;2022-09-09T14:56:10;2.50;;;0.90;;
5163;SDS011;2601;50.224;10.126;2022-09-09T14:58:39;2.60;;;1.10;;
5163;SDS011;2601;50.224;10.126;2022-09-09T15:01:06;4.77;;;1.70;;
5163;SDS011;2601;50.224;10.126;2022-09-09T15:03:36;1.37;;;0.80;;
5163;SDS011;2601;50.224;10.126;2022-09-09T15:06:21;4.27;;;0.93;;
5163;SDS011;2601;50.224;10.126;2022-09-09T15:08:49;3.83;;;0.97;;
5163;SDS011;2601;50.224;10.126;2022-09-09T15:11:17;2.03;;;0.90;;
5163;SDS011;2601;50.224;10.126;2022-09-09T15:13:43;2.40;;;1.00;;
5163;SDS011;2601;50.224;10.126;2022-09-09T15:16:10;4.50;;;1.10;;
5163;SDS011;2601;50.224;10.126;2022-09-09T15:18:41;4.20;;;0.93;;
5163;SDS011;2601;50.224;10.126;2022-09-09T15:21:10;3.47;;;0.90;;
5163;SDS011;2601;50.224;10.126;2022-09-09T15:23:38;4.33;;;1.53;;
5163;SDS011;2601;50.224;10.126;2022-09-09T15:26:04;1.57;;;1.00;;
5163;SDS011;2601;50.224;10.126;2022-09-09T15:28:34;6.20;;;1.40;;
5163;SDS011;2601;50.224;10.126;2022-09-09T15:31:04;4.30;;;0.90;;
5163;SDS011;2601;50.224;10.126;2022-09-09T15:33:32;6.30;;;0.90;;
5163;SDS011;2601;50.224;10.126;2022-09-09T15:35:58;2.33;;;0.93;;
5163;SDS011;2601;50.224;10.126;2022-09-09T15:38:24;4.53;;;1.03;;
5163;SDS011;2601;50.224;10.126;2022-09-09T15:40:56;6.37;;;1.60;;
5163;SDS011;2601;50.224;10.126;2022-09-09T15:43:23;4.77;;;1.03;;
5163;SDS011;2601;50.224;10.126;2022-09-09T15:45:51;2.50;;;1.20;;
5163;SDS011;2601;50.224;10.126;2022-09-09T15:48:30;9.50;;;1.87;;
5163;SDS011;2601;50.224;10.126;2022-09-09T15:51:02;3.87;;;1.20;;
5163;SDS011;2601;50.224;10.126;2022-09-09T15:53:29;5.03;;;1.27;;
5163;SDS011;2601;50.224;10.126;2022-09-09T15:55:57;4.03;;;1.20;;
5163;SDS011;2601;50.224;10.126;2022-09-09T15:58:24;2.90;;;1.20;;
5163;SDS011;2601;50.224;10.126;2022-09-09T16:00:49;2.50;;;0.93;;
5163;SDS011;2601;50.224;10.126;2022-09-09T16:03:16;2.83;;;0.93;;
5163;SDS011;2601;50.224;10.126;2022-09-09T16:05:42;5.83;;;1.40;;
5163;SDS011;2601;50.224;10.126;2022-09-09T16:08:08;2.90;;;1.00;;
5163;SDS011;2601;50.224;10.126;2022-09-09T16:10:34;2.40;;;1.03;;
5163;SDS011;2601;50.224;10.126;2022-09-09T16:12:59;6.40;;;1.60;;
5163;SDS011;2601;50.224;10.126;2022-09-09T16:15:25;1.80;;;1.10;;
5163;SDS011;2601;50.224;10.126;2022-09-09T16:17:53;5.10;;;1.30;;
5163;SDS011;2601;50.224;10.126;2022-09-09T16:20:19;2.70;;;1.10;;
5163;SDS011;2601;50.224;10.126;2022-09-09T16:22:45;3.53;;;1.47;;
5163;SDS011;2601;50.224;10.126;2022-09-09T16:25:11;4.37;;;1.20;;
5163;SDS011;2601;50.224;10.126;2022-09-09T16:27:37;6.00;;;1.17;;
5163;SDS011;2601;50.224;10.126;2022-09-09T16:30:02;4.70;;;2.10;;
5163;SDS011;2601;50.224;10.126;2022-09-09T16:32:29;4.40;;;1.47;;
5163;SDS011;2601;50.224;10.126;2022-09-09T16:34:55;4.50;;;1.47;;
5163;SDS011;2601;50.224;10.126;2022-09-09T16:37:21;3.67;;;1.00;;
5163;SDS011;2601;50.224;10.126;2022-09-09T16:39:46;3.50;;;1.40;;
5163;SDS011;2601;50.224;10.126;2022-09-09T16:42:12;6.90;;;1.60;;
5163;SDS011;2601;50.224;10.126;2022-09-09T16:44:38;5.67;;;1.10;;
5163;SDS011;2601;50.224;10.126;2022-09-09T16:47:04;3.70;;;1.33;;
5163;SDS011;2601;50.224;10.126;2022-09-09T16:49:29;5.47;;;1.17;;
5163;SDS011;2601;50.224;10.126;2022-09-09T16:51:56;2.83;;;1.23;;
5163;SDS011;2601;50.224;10.126;2022-09-09T16:54:23;2.60;;;0.90;;
5163;SDS011;2601;50.224;10.126;2022-09-09T16:56:51;5.10;;;1.60;;
5163;SDS011;2601;50.224;10.126;2022-09-09T16:59:18;8.10;;;1.37;;
5163;SDS011;2601;50.224;10.126;2022-09-09T17:01:47;6.60;;;1.57;;
5163;SDS011;2601;50.224;10.126;2022-09-09T17:04:21;4.07;;;1.63;;
5163;SDS011;2601;50.224;10.126;2022-09-09T17:06:50;3.73;;;1.40;;
5163;SDS011;2601;50.224;10.126;2022-09-09T17:09:18;4.70;;;1.23;;
5163;SDS011;2601;50.224;10.126;2022-09-09T17:11:45;2.00;;;1.40;;
5163;SDS011;2601;50.224;10.126;2022-09-09T17:14:14;1.67;;;1.17;;
5163;SDS011;2601;50.224;10.126;2022-09-09T17:16:41;1.80;;;1.30;;
5163;SDS011;2601;50.224;10.126;2022-09-09T17:19:08;3.53;;;1.30;;
5163;SDS011;2601;50.224;10.126;2022-09-09T17:21:34;3.30;;;1.30;;
5163;SDS011;2601;50.224;10.126;2022-09-09T17:24:01;4.93;;;1.37;;
5163;SDS011;2601;50.224;10.126;2022-09-09T17:26:28;3.83;;;1.40;;
5163;SDS011;2601;50.224;10.126;2022-09-09T17:28:55;3.30;;;1.63;;
5163;SDS011;2601;50.224;10.126;2022-09-09T17:31:23;5.00;;;1.33;;
5163;SDS011;2601;50.224;10.126;2022-09-09T17:33:50;1.73;;;1.10;;
5163;SDS011;2601;50.224;10.126;2022-09-09T17:36:28;3.50;;;1.73;;
5163;SDS011;2601;50.224;10.126;2022-09-09T17:38:55;4.73;;;1.33;;
5163;SDS011;2601;50.224;10.126;2022-09-09T17:41:23;3.00;;;1.10;;
5163;SDS011;2601;50.224;10.126;2022-09-09T17:43:54;3.30;;;1.40;;
5163;SDS011;2601;50.224;10.126;2022-09-09T17:46:21;3.37;;;1.30;;
5163;SDS011;2601;50.224;10.126;2022-09-09T17:48:49;4.23;;;1.10;;
5163;SDS011;2601;50.224;10.126;2022-09-09T17:51:17;2.30;;;1.57;;